Brant, MI (48614)

10:58 PM EST en Enero 30, 2015 (GMT -0500)
Brant Township | Change Station
CLOSE
Current Station
Estación meteorológica personal
Location: Brant, MI
Altura: 614 ft
Estaciones meteorológicas cercanas

Alt 614 ft 43.26 °N, 84.23 °W | Updated 56 minutes ago

Muy nublado
Muy nublado
12.5 ° F
Sensación térmica 13 ° F
N
0.0
Viento Variable Viento desde Oeste
Gusts 0.0 mph

Hoy
Alta -- | Baja -- ° F
--% Posibilidad de precipitaciones
Ayer
Alta -- | Baja -- ° F
Precip. -- pul
7:55 AM 5:46 PM
Gibosa creciente, 87% visible
Presión 30.37 pul
Visibilidad 10.0 Millas
Nubes Nubes dispersas 6500 ft
Nublado 7500 ft
Vientos helados 13 ° F
Punto de rocío 9 ° F
Humedad 86%
Precipitaciones 0.00 pul
Espesor de la nieve No disponible.
UV 0 de una escala de 12
Polen .10 de una escala de 12
Calidad del aire No disponible.
Flu Activity No disponible.
METAR KRNP 310335Z AUTO 00000KT 10SM SCT065 OVC075 M09/M13 A3037 RMK AO2 T10901131

More Conditions Fewer Conditions

Presión 30.37 pul
Visibilidad 10.0 Millas
Nubes Nubes dispersas 6500 ft
Nublado 7500 ft
Vientos helados 13 ° F
Punto de rocío 9 ° F
Humedad 86%
Precipitaciones 0.00 pul
Espesor de la nieve No disponible.
UV 0 de una escala de 12
Polen .10 de una escala de 12
Calidad del aire No disponible.
Flu Activity No disponible.
METAR KRNP 310335Z AUTO 00000KT 10SM SCT065 OVC075 M09/M13 A3037 RMK AO2 T10901131

More Conditions Fewer Conditions

10-Day Weather Forecast

Almanac

Astronomía

Jan. 30, 2015 Salida Puesta
Hora real
Crepúsculo civil
Crepúsculo náutico
Crepúsculo astronómico
Luna
Horas de luz
Horas de luz
Tomorrow will be .
, % of the Moon is Illuminated

Extremos de hoy

Máximos del estado Bajos del estado

Community

WunderPhotos

Upload Photos

1,791,994 ¡fotos cargadas!

WunderBlogs® & News

Nearby

Calidad del aire

  Calidad del aire Índice AQ Contaminante
Not available.

Grosos de nieve

Estación Profundido Altura

Actividad de terremotos

Ciudad Distance Mag. Tiempo y dato
Magnitud mínima muestra es 2,5.

Temperaturas de aguas costeras

Lugar Temperatura

Estaciones meteorológicas cercanas